sensor_id;sensor_type;location;lat;lon;timestamp;P1;durP1;ratioP1;P2;durP2;ratioP2
77166;SDS011;66141;7.324;79.980;2023-01-15T00:00:01;7.55;;;4.78;;
77166;SDS011;66141;7.324;79.980;2023-01-15T00:00:07;7.40;;;4.63;;
77166;SDS011;66141;7.324;79.980;2023-01-15T00:00:13;7.28;;;4.32;;
77166;SDS011;66141;7.324;79.980;2023-01-15T00:00:19;7.25;;;4.35;;
77166;SDS011;66141;7.324;79.980;2023-01-15T00:00:25;7.22;;;4.38;;
77166;SDS011;66141;7.324;79.980;2023-01-15T00:00:31;7.50;;;4.43;;
77166;SDS011;66141;7.324;79.980;2023-01-15T00:00:37;7.60;;;4.47;;
77166;SDS011;66141;7.324;79.980;2023-01-15T00:00:42;7.90;;;4.53;;
77166;SDS011;66141;7.324;79.980;2023-01-15T00:00:48;8.00;;;4.53;;
77166;SDS011;66141;7.324;79.980;2023-01-15T00:00:54;8.15;;;4.75;;
77166;SDS011;66141;7.324;79.980;2023-01-15T00:01:01;8.75;;;4.60;;
77166;SDS011;66141;7.324;79.980;2023-01-15T00:01:17;9.20;;;4.54;;
77166;SDS011;66141;7.324;79.980;2023-01-15T00:01:24;9.24;;;4.46;;
77166;SDS011;66141;7.324;79.980;2023-01-15T00:01:31;8.33;;;4.40;;
77166;SDS011;66141;7.324;79.980;2023-01-15T00:01:39;8.10;;;4.68;;
77166;SDS011;66141;7.324;79.980;2023-01-15T00:01:44;8.13;;;4.82;;
77166;SDS011;66141;7.324;79.980;2023-01-15T00:01:50;7.88;;;4.80;;
77166;SDS011;66141;7.324;79.980;2023-01-15T00:01:56;8.30;;;4.78;;
77166;SDS011;66141;7.324;79.980;2023-01-15T00:02:02;8.77;;;4.78;;
77166;SDS011;66141;7.324;79.980;2023-01-15T00:02:08;8.55;;;4.43;;
77166;SDS011;66141;7.324;79.980;2023-01-15T00:02:14;8.57;;;4.40;;
77166;SDS011;66141;7.324;79.980;2023-01-15T00:02:22;7.40;;;4.15;;
77166;SDS011;66141;7.324;79.980;2023-01-15T00:02:29;6.95;;;4.20;;
77166;SDS011;66141;7.324;79.980;2023-01-15T00:02:35;7.17;;;4.28;;
77166;SDS011;66141;7.324;79.980;2023-01-15T00:02:41;7.57;;;4.47;;
77166;SDS011;66141;7.324;79.980;2023-01-15T00:02:46;7.18;;;4.45;;
77166;SDS011;66141;7.324;79.980;2023-01-15T00:02:52;8.43;;;4.80;;
77166;SDS011;66141;7.324;79.980;2023-01-15T00:03:00;9.62;;;4.90;;
77166;SDS011;66141;7.324;79.980;2023-01-15T00:03:05;9.98;;;5.07;;
77166;SDS011;66141;7.324;79.980;2023-01-15T00:03:11;10.60;;;5.28;;
77166;SDS011;66141;7.324;79.980;2023-01-15T00:03:17;10.83;;;5.37;;
77166;SDS011;66141;7.324;79.980;2023-01-15T00:03:23;10.13;;;5.17;;
77166;SDS011;66141;7.324;79.980;2023-01-15T00:03:29;8.70;;;4.93;;
77166;SDS011;66141;7.324;79.980;2023-01-15T00:03:35;7.67;;;4.57;;
77166;SDS011;66141;7.324;79.980;2023-01-15T00:03:41;6.87;;;4.27;;
77166;SDS011;66141;7.324;79.980;2023-01-15T00:03:47;6.50;;;3.92;;
77166;SDS011;66141;7.324;79.980;2023-01-15T00:03:53;6.90;;;3.93;;
77166;SDS011;66141;7.324;79.980;2023-01-15T00:04:00;7.78;;;4.24;;
77166;SDS011;66141;7.324;79.980;2023-01-15T00:04:09;8.53;;;4.62;;
77166;SDS011;66141;7.324;79.980;2023-01-15T00:04:16;8.90;;;4.67;;
77166;SDS011;66141;7.324;79.980;2023-01-15T00:04:28;8.23;;;4.37;;
77166;SDS011;66141;7.324;79.980;2023-01-15T00:04:34;7.72;;;4.18;;
77166;SDS011;66141;7.324;79.980;2023-01-15T00:04:40;7.43;;;4.05;;
77166;SDS011;66141;7.324;79.980;2023-01-15T00:04:49;7.38;;;4.30;;
77166;SDS011;66141;7.324;79.980;2023-01-15T00:04:55;7.53;;;4.67;;
77166;SDS011;66141;7.324;79.980;2023-01-15T00:05:00;7.68;;;4.55;;
77166;SDS011;66141;7.324;79.980;2023-01-15T00:05:07;7.47;;;4.67;;
77166;SDS011;66141;7.324;79.980;2023-01-15T00:05:13;8.68;;;4.40;;
77166;SDS011;66141;7.324;79.980;2023-01-15T00:05:19;8.88;;;4.18;;
77166;SDS011;66141;7.324;79.980;2023-01-15T00:05:25;8.27;;;4.00;;
77166;SDS011;66141;7.324;79.980;2023-01-15T00:05:30;7.80;;;4.03;;
77166;SDS011;66141;7.324;79.980;2023-01-15T00:05:36;8.63;;;3.92;;
77166;SDS011;66141;7.324;79.980;2023-01-15T00:05:42;7.57;;;3.85;;
77166;SDS011;66141;7.324;79.980;2023-01-15T00:05:48;7.07;;;3.85;;
77166;SDS011;66141;7.324;79.980;2023-01-15T00:05:54;7.85;;;4.07;;
77166;SDS011;66141;7.324;79.980;2023-01-15T00:06:02;8.53;;;4.20;;
77166;SDS011;66141;7.324;79.980;2023-01-15T00:06:08;7.71;;;4.16;;
77166;SDS011;66141;7.324;79.980;2023-01-15T00:06:17;8.25;;;4.38;;
77166;SDS011;66141;7.324;79.980;2023-01-15T00:06:23;8.73;;;4.40;;
77166;SDS011;66141;7.324;79.980;2023-01-15T00:06:29;7.90;;;4.13;;
77166;SDS011;66141;7.324;79.980;2023-01-15T00:06:37;7.93;;;4.13;;
77166;SDS011;66141;7.324;79.980;2023-01-15T00:06:43;8.27;;;4.20;;
77166;SDS011;66141;7.324;79.980;2023-01-15T00:06:49;8.23;;;4.30;;
77166;SDS011;66141;7.324;79.980;2023-01-15T00:06:55;7.68;;;4.30;;
77166;SDS011;66141;7.324;79.980;2023-01-15T00:07:01;7.88;;;4.38;;
77166;SDS011;66141;7.324;79.980;2023-01-15T00:07:08;8.58;;;4.30;;
77166;SDS011;66141;7.324;79.980;2023-01-15T00:07:14;7.82;;;4.00;;
77166;SDS011;66141;7.324;79.980;2023-01-15T00:07:20;7.27;;;3.87;;
77166;SDS011;66141;7.324;79.980;2023-01-15T00:07:26;7.38;;;3.85;;
77166;SDS011;66141;7.324;79.980;2023-01-15T00:07:33;7.57;;;3.88;;
77166;SDS011;66141;7.324;79.980;2023-01-15T00:07:38;6.53;;;4.00;;
77166;SDS011;66141;7.324;79.980;2023-01-15T00:07:44;6.68;;;4.10;;
77166;SDS011;66141;7.324;79.980;2023-01-15T00:07:50;7.13;;;4.15;;
77166;SDS011;66141;7.324;79.980;2023-01-15T00:07:56;7.28;;;4.20;;
77166;SDS011;66141;7.324;79.980;2023-01-15T00:08:02;8.50;;;4.60;;
77166;SDS011;66141;7.324;79.980;2023-01-15T00:08:08;8.93;;;4.43;;
77166;SDS011;66141;7.324;79.980;2023-01-15T00:08:14;8.65;;;4.38;;
77166;SDS011;66141;7.324;79.980;2023-01-15T00:08:19;8.35;;;4.32;;
77166;SDS011;66141;7.324;79.980;2023-01-15T00:08:25;8.35;;;4.35;;
77166;SDS011;66141;7.324;79.980;2023-01-15T00:08:31;6.97;;;3.83;;
77166;SDS011;66141;7.324;79.980;2023-01-15T00:08:37;6.72;;;3.88;;
77166;SDS011;66141;7.324;79.980;2023-01-15T00:08:43;7.07;;;3.90;;
77166;SDS011;66141;7.324;79.980;2023-01-15T00:08:49;8.70;;;4.07;;
77166;SDS011;66141;7.324;79.980;2023-01-15T00:08:55;8.23;;;3.80;;
77166;SDS011;66141;7.324;79.980;2023-01-15T00:09:01;8.52;;;4.05;;
77166;SDS011;66141;7.324;79.980;2023-01-15T00:09:08;8.98;;;4.10;;
77166;SDS011;66141;7.324;79.980;2023-01-15T00:09:16;8.94;;;4.06;;
77166;SDS011;66141;7.324;79.980;2023-01-15T00:09:22;8.60;;;3.90;;
77166;SDS011;66141;7.324;79.980;2023-01-15T00:09:28;9.38;;;4.05;;
77166;SDS011;66141;7.324;79.980;2023-01-15T00:09:34;9.65;;;4.22;;
77166;SDS011;66141;7.324;79.980;2023-01-15T00:09:40;9.40;;;4.38;;
77166;SDS011;66141;7.324;79.980;2023-01-15T00:09:46;9.20;;;4.57;;
77166;SDS011;66141;7.324;79.980;2023-01-15T00:09:51;9.73;;;4.60;;
77166;SDS011;66141;7.324;79.980;2023-01-15T00:09:57;9.15;;;4.60;;
77166;SDS011;66141;7.324;79.980;2023-01-15T00:10:03;8.50;;;4.43;;
77166;SDS011;66141;7.324;79.980;2023-01-15T00:10:09;8.52;;;4.45;;
77166;SDS011;66141;7.324;79.980;2023-01-15T00:10:15;8.55;;;4.32;;
77166;SDS011;66141;7.324;79.980;2023-01-15T00:10:21;8.73;;;4.45;;
77166;SDS011;66141;7.324;79.980;2023-01-15T00:10:27;9.52;;;4.60;;
77166;SDS011;66141;7.324;79.980;2023-01-15T00:10:33;9.65;;;4.63;;
77166;SDS011;66141;7.324;79.980;2023-01-15T00:10:39;9.80;;;4.65;;
77166;SDS011;66141;7.324;79.980;2023-01-15T00:10:45;9.48;;;4.53;;
77166;SDS011;66141;7.324;79.980;2023-01-15T00:10:51;8.60;;;4.38;;
77166;SDS011;66141;7.324;79.980;2023-01-15T00:10:57;8.02;;;4.38;;
77166;SDS011;66141;7.324;79.980;2023-01-15T00:11:03;9.20;;;4.40;;
77166;SDS011;66141;7.324;79.980;2023-01-15T00:11:09;9.40;;;4.10;;
77166;SDS011;66141;7.324;79.980;2023-01-15T00:11:15;9.05;;;4.05;;
77166;SDS011;66141;7.324;79.980;2023-01-15T00:11:21;9.23;;;4.13;;
77166;SDS011;66141;7.324;79.980;2023-01-15T00:11:27;8.90;;;3.93;;
77166;SDS011;66141;7.324;79.980;2023-01-15T00:11:33;7.73;;;3.87;;
77166;SDS011;66141;7.324;79.980;2023-01-15T00:11:39;8.27;;;4.15;;
77166;SDS011;66141;7.324;79.980;2023-01-15T00:11:45;9.33;;;4.40;;
77166;SDS011;66141;7.324;79.980;2023-01-15T00:11:51;9.18;;;4.35;;
77166;SDS011;66141;7.324;79.980;2023-01-15T00:11:56;9.70;;;4.43;;
77166;SDS011;66141;7.324;79.980;2023-01-15T00:12:02;9.30;;;4.32;;
77166;SDS011;66141;7.324;79.980;2023-01-15T00:12:08;8.48;;;4.25;;
77166;SDS011;66141;7.324;79.980;2023-01-15T00:12:14;7.10;;;4.10;;
77166;SDS011;66141;7.324;79.980;2023-01-15T00:12:20;6.93;;;4.17;;
77166;SDS011;66141;7.324;79.980;2023-01-15T00:12:26;6.68;;;4.13;;
77166;SDS011;66141;7.324;79.980;2023-01-15T00:12:31;6.55;;;4.10;;
77166;SDS011;66141;7.324;79.980;2023-01-15T00:12:37;7.80;;;4.30;;
77166;SDS011;66141;7.324;79.980;2023-01-15T00:12:43;8.03;;;4.23;;
77166;SDS011;66141;7.324;79.980;2023-01-15T00:12:49;8.23;;;4.13;;
77166;SDS011;66141;7.324;79.980;2023-01-15T00:12:55;8.15;;;4.13;;
77166;SDS011;66141;7.324;79.980;2023-01-15T00:13:01;8.10;;;4.13;;
77166;SDS011;66141;7.324;79.980;2023-01-15T00:13:07;8.15;;;4.03;;
77166;SDS011;66141;7.324;79.980;2023-01-15T00:13:12;8.07;;;4.35;;
77166;SDS011;66141;7.324;79.980;2023-01-15T00:13:18;9.37;;;4.73;;
77166;SDS011;66141;7.324;79.980;2023-01-15T00:13:24;9.15;;;4.75;;
77166;SDS011;66141;7.324;79.980;2023-01-15T00:13:33;9.17;;;5.00;;
77166;SDS011;66141;7.324;79.980;2023-01-15T00:13:39;9.02;;;4.88;;
77166;SDS011;66141;7.324;79.980;2023-01-15T00:13:45;8.43;;;4.50;;
77166;SDS011;66141;7.324;79.980;2023-01-15T00:13:51;7.20;;;4.10;;
77166;SDS011;66141;7.324;79.980;2023-01-15T00:13:57;7.40;;;4.07;;
77166;SDS011;66141;7.324;79.980;2023-01-15T00:14:03;7.38;;;4.18;;
77166;SDS011;66141;7.324;79.980;2023-01-15T00:14:09;6.50;;;4.20;;
77166;SDS011;66141;7.324;79.980;2023-01-15T00:14:16;6.52;;;4.12;;
77166;SDS011;66141;7.324;79.980;2023-01-15T00:14:22;6.97;;;4.28;;
77166;SDS011;66141;7.324;79.980;2023-01-15T00:14:28;7.03;;;4.25;;
77166;SDS011;66141;7.324;79.980;2023-01-15T00:14:34;7.13;;;4.18;;
77166;SDS011;66141;7.324;79.980;2023-01-15T00:14:39;7.20;;;4.10;;
77166;SDS011;66141;7.324;79.980;2023-01-15T00:14:45;7.55;;;4.13;;
77166;SDS011;66141;7.324;79.980;2023-01-15T00:14:51;7.15;;;4.10;;
77166;SDS011;66141;7.324;79.980;2023-01-15T00:14:57;7.43;;;4.20;;
77166;SDS011;66141;7.324;79.980;2023-01-15T00:15:03;7.47;;;4.30;;
77166;SDS011;66141;7.324;79.980;2023-01-15T00:15:09;7.75;;;4.38;;
77166;SDS011;66141;7.324;79.980;2023-01-15T00:15:15;7.43;;;4.50;;
77166;SDS011;66141;7.324;79.980;2023-01-15T00:15:20;7.57;;;4.40;;
77166;SDS011;66141;7.324;79.980;2023-01-15T00:15:26;7.30;;;4.30;;
77166;SDS011;66141;7.324;79.980;2023-01-15T00:15:32;6.32;;;3.92;;
77166;SDS011;66141;7.324;79.980;2023-01-15T00:15:38;6.60;;;4.05;;
77166;SDS011;66141;7.324;79.980;2023-01-15T00:15:44;6.53;;;4.15;;
77166;SDS011;66141;7.324;79.980;2023-01-15T00:15:50;6.73;;;4.10;;
77166;SDS011;66141;7.324;79.980;2023-01-15T00:16:02;7.28;;;4.07;;
77166;SDS011;66141;7.324;79.980;2023-01-15T00:16:09;7.86;;;4.19;;
77166;SDS011;66141;7.324;79.980;2023-01-15T00:16:17;8.07;;;4.00;;
77166;SDS011;66141;7.324;79.980;2023-01-15T00:16:24;7.67;;;4.17;;
77166;SDS011;66141;7.324;79.980;2023-01-15T00:16:30;8.47;;;4.20;;
77166;SDS011;66141;7.324;79.980;2023-01-15T00:16:36;8.23;;;4.10;;
77166;SDS011;66141;7.324;79.980;2023-01-15T00:16:44;8.27;;;4.20;;
77166;SDS011;66141;7.324;79.980;2023-01-15T00:16:50;7.30;;;4.13;;
77166;SDS011;66141;7.324;79.980;2023-01-15T00:16:56;8.23;;;4.00;;
77166;SDS011;66141;7.324;79.980;2023-01-15T00:17:02;7.77;;;4.03;;
77166;SDS011;66141;7.324;79.980;2023-01-15T00:17:08;8.00;;;4.03;;
77166;SDS011;66141;7.324;79.980;2023-01-15T00:17:14;8.23;;;4.00;;
77166;SDS011;66141;7.324;79.980;2023-01-15T00:17:19;8.63;;;4.05;;
77166;SDS011;66141;7.324;79.980;2023-01-15T00:17:25;7.80;;;4.10;;
77166;SDS011;66141;7.324;79.980;2023-01-15T00:17:31;7.38;;;4.15;;
77166;SDS011;66141;7.324;79.980;2023-01-15T00:17:37;7.15;;;4.20;;
77166;SDS011;66141;7.324;79.980;2023-01-15T00:17:43;7.15;;;4.20;;
77166;SDS011;66141;7.324;79.980;2023-01-15T00:17:48;6.85;;;4.32;;
77166;SDS011;66141;7.324;79.980;2023-01-15T00:17:54;7.23;;;4.40;;
77166;SDS011;66141;7.324;79.980;2023-01-15T00:18:00;7.22;;;4.28;;
77166;SDS011;66141;7.324;79.980;2023-01-15T00:18:06;7.25;;;4.30;;
77166;SDS011;66141;7.324;79.980;2023-01-15T00:18:12;7.88;;;4.32;;
77166;SDS011;66141;7.324;79.980;2023-01-15T00:18:17;7.93;;;4.23;;
77166;SDS011;66141;7.324;79.980;2023-01-15T00:18:23;8.10;;;4.25;;
77166;SDS011;66141;7.324;79.980;2023-01-15T00:18:29;8.35;;;4.20;;
77166;SDS011;66141;7.324;79.980;2023-01-15T00:18:35;8.63;;;4.38;;
77166;SDS011;66141;7.324;79.980;2023-01-15T00:18:40;8.43;;;4.18;;
77166;SDS011;66141;7.324;79.980;2023-01-15T00:18:50;8.63;;;4.47;;
77166;SDS011;66141;7.324;79.980;2023-01-15T00:18:57;8.93;;;4.54;;
77166;SDS011;66141;7.324;79.980;2023-01-15T00:19:03;8.20;;;4.50;;
77166;SDS011;66141;7.324;79.980;2023-01-15T00:19:12;8.77;;;4.84;;
77166;SDS011;66141;7.324;79.980;2023-01-15T00:19:18;8.07;;;4.75;;
77166;SDS011;66141;7.324;79.980;2023-01-15T00:19:24;7.90;;;4.57;;
77166;SDS011;66141;7.324;79.980;2023-01-15T00:19:30;8.07;;;4.70;;
77166;SDS011;66141;7.324;79.980;2023-01-15T00:19:36;7.57;;;4.38;;
77166;SDS011;66141;7.324;79.980;2023-01-15T00:19:42;6.75;;;4.10;;
77166;SDS011;66141;7.324;79.980;2023-01-15T00:19:48;7.13;;;4.10;;
77166;SDS011;66141;7.324;79.980;2023-01-15T00:19:53;6.57;;;3.90;;
77166;SDS011;66141;7.324;79.980;2023-01-15T00:19:59;6.53;;;3.85;;
77166;SDS011;66141;7.324;79.980;2023-01-15T00:20:05;6.93;;;4.03;;
77166;SDS011;66141;7.324;79.980;2023-01-15T00:20:11;6.90;;;3.97;;
77166;SDS011;66141;7.324;79.980;2023-01-15T00:20:17;6.97;;;3.90;;
77166;SDS011;66141;7.324;79.980;2023-01-15T00:20:23;7.20;;;4.03;;
77166;SDS011;66141;7.324;79.980;2023-01-15T00:20:29;7.20;;;3.97;;
77166;SDS011;66141;7.324;79.980;2023-01-15T00:20:35;7.20;;;3.83;;
77166;SDS011;66141;7.324;79.980;2023-01-15T00:20:41;8.90;;;3.95;;
77166;SDS011;66141;7.324;79.980;2023-01-15T00:20:46;9.07;;;4.03;;
77166;SDS011;66141;7.324;79.980;2023-01-15T00:20:57;8.80;;;4.07;;
77166;SDS011;66141;7.324;79.980;2023-01-15T00:21:04;8.55;;;3.99;;
77166;SDS011;66141;7.324;79.980;2023-01-15T00:21:11;5.97;;;3.60;;
77166;SDS011;66141;7.324;79.980;2023-01-15T00:21:18;6.06;;;3.62;;
77166;SDS011;66141;7.324;79.980;2023-01-15T00:21:25;6.00;;;3.50;;
77166;SDS011;66141;7.324;79.980;2023-01-15T00:21:31;7.02;;;3.70;;
77166;SDS011;66141;7.324;79.980;2023-01-15T00:21:37;8.07;;;4.27;;
77166;SDS011;66141;7.324;79.980;2023-01-15T00:21:43;9.13;;;4.30;;
77166;SDS011;66141;7.324;79.980;2023-01-15T00:21:49;9.32;;;4.28;;
77166;SDS011;66141;7.324;79.980;2023-01-15T00:21:54;9.38;;;4.50;;
77166;SDS011;66141;7.324;79.980;2023-01-15T00:22:01;9.20;;;4.57;;
77166;SDS011;66141;7.324;79.980;2023-01-15T00:22:07;8.48;;;4.22;;
77166;SDS011;66141;7.324;79.980;2023-01-15T00:22:13;8.07;;;4.40;;
77166;SDS011;66141;7.324;79.980;2023-01-15T00:22:18;8.52;;;4.50;;
77166;SDS011;66141;7.324;79.980;2023-01-15T00:22:24;9.10;;;4.47;;
77166;SDS011;66141;7.324;79.980;2023-01-15T00:22:30;9.98;;;4.65;;
77166;SDS011;66141;7.324;79.980;2023-01-15T00:22:36;10.10;;;4.72;;
77166;SDS011;66141;7.324;79.980;2023-01-15T00:22:42;9.65;;;4.68;;
77166;SDS011;66141;7.324;79.980;2023-01-15T00:22:47;8.45;;;4.35;;
77166;SDS011;66141;7.324;79.980;2023-01-15T00:22:53;8.00;;;4.30;;
77166;SDS011;66141;7.324;79.980;2023-01-15T00:22:59;6.78;;;4.00;;
77166;SDS011;66141;7.324;79.980;2023-01-15T00:23:05;6.22;;;3.78;;
77166;SDS011;66141;7.324;79.980;2023-01-15T00:23:31;8.45;;;4.40;;
77166;SDS011;66141;7.324;79.980;2023-01-15T00:24:03;9.13;;;4.74;;
77166;SDS011;66141;7.324;79.980;2023-01-15T00:24:27;8.61;;;4.55;;
77166;SDS011;66141;7.324;79.980;2023-01-15T00:24:51;9.43;;;4.82;;
77166;SDS011;66141;7.324;79.980;2023-01-15T00:25:15;8.64;;;4.54;;
77166;SDS011;66141;7.324;79.980;2023-01-15T00:25:38;8.89;;;4.57;;
77166;SDS011;66141;7.324;79.980;2023-01-15T00:26:02;7.55;;;4.69;;
77166;SDS011;66141;7.324;79.980;2023-01-15T00:26:27;8.23;;;4.61;;
77166;SDS011;66141;7.324;79.980;2023-01-15T00:26:51;8.70;;;5.05;;
77166;SDS011;66141;7.324;79.980;2023-01-15T00:27:15;8.43;;;5.07;;
77166;SDS011;66141;7.324;79.980;2023-01-15T00:27:39;8.93;;;4.39;;
77166;SDS011;66141;7.324;79.980;2023-01-15T00:27:45;8.52;;;4.13;;
77166;SDS011;66141;7.324;79.980;2023-01-15T00:27:51;7.68;;;4.32;;
77166;SDS011;66141;7.324;79.980;2023-01-15T00:27:57;7.30;;;4.40;;
77166;SDS011;66141;7.324;79.980;2023-01-15T00:28:02;7.57;;;4.47;;
77166;SDS011;66141;7.324;79.980;2023-01-15T00:28:11;7.80;;;4.53;;
77166;SDS011;66141;7.324;79.980;2023-01-15T00:28:17;8.00;;;4.60;;
77166;SDS011;66141;7.324;79.980;2023-01-15T00:28:23;8.20;;;4.40;;
77166;SDS011;66141;7.324;79.980;2023-01-15T00:28:28;8.83;;;4.27;;
77166;SDS011;66141;7.324;79.980;2023-01-15T00:28:34;7.45;;;4.05;;
77166;SDS011;66141;7.324;79.980;2023-01-15T00:28:40;7.40;;;3.90;;
77166;SDS011;66141;7.324;79.980;2023-01-15T00:28:47;8.52;;;3.97;;
77166;SDS011;66141;7.324;79.980;2023-01-15T00:28:53;8.43;;;4.00;;
77166;SDS011;66141;7.324;79.980;2023-01-15T00:28:59;8.18;;;3.90;;
77166;SDS011;66141;7.324;79.980;2023-01-15T00:29:04;8.52;;;3.97;;
77166;SDS011;66141;7.324;79.980;2023-01-15T00:29:10;8.90;;;4.38;;
77166;SDS011;66141;7.324;79.980;2023-01-15T00:29:16;8.07;;;4.35;;
77166;SDS011;66141;7.324;79.980;2023-01-15T00:29:22;7.82;;;4.32;;
77166;SDS011;66141;7.324;79.980;2023-01-15T00:29:28;7.68;;;4.45;;
77166;SDS011;66141;7.324;79.980;2023-01-15T00:29:36;7.48;;;4.68;;
77166;SDS011;66141;7.324;79.980;2023-01-15T00:29:42;6.68;;;4.60;;
77166;SDS011;66141;7.324;79.980;2023-01-15T00:29:48;6.73;;;4.67;;
77166;SDS011;66141;7.324;79.980;2023-01-15T00:29:54;7.28;;;4.75;;
77166;SDS011;66141;7.324;79.980;2023-01-15T00:29:59;6.85;;;4.65;;
77166;SDS011;66141;7.324;79.980;2023-01-15T00:30:06;7.63;;;4.55;;
77166;SDS011;66141;7.324;79.980;2023-01-15T00:30:13;7.50;;;4.15;;
77166;SDS011;66141;7.324;79.980;2023-01-15T00:30:19;7.35;;;4.15;;
77166;SDS011;66141;7.324;79.980;2023-01-15T00:30:25;7.47;;;4.27;;
77166;SDS011;66141;7.324;79.980;2023-01-15T00:30:31;7.57;;;4.33;;
77166;SDS011;66141;7.324;79.980;2023-01-15T00:30:39;7.53;;;4.38;;
77166;SDS011;66141;7.324;79.980;2023-01-15T00:30:45;7.67;;;4.45;;
77166;SDS011;66141;7.324;79.980;2023-01-15T00:30:50;7.47;;;4.20;;
77166;SDS011;66141;7.324;79.980;2023-01-15T00:30:56;7.60;;;4.17;;
77166;SDS011;66141;7.324;79.980;2023-01-15T00:31:02;7.30;;;4.10;;
77166;SDS011;66141;7.324;79.980;2023-01-15T00:31:08;6.75;;;3.97;;
77166;SDS011;66141;7.324;79.980;2023-01-15T00:31:14;6.43;;;4.00;;
77166;SDS011;66141;7.324;79.980;2023-01-15T00:31:19;6.20;;;3.93;;
77166;SDS011;66141;7.324;79.980;2023-01-15T00:31:25;6.97;;;4.30;;
77166;SDS011;66141;7.324;79.980;2023-01-15T00:31:32;6.77;;;4.07;;
77166;SDS011;66141;7.324;79.980;2023-01-15T00:31:39;6.92;;;3.94;;
77166;SDS011;66141;7.324;79.980;2023-01-15T00:31:58;7.70;;;4.20;;
77166;SDS011;66141;7.324;79.980;2023-01-15T00:32:06;8.35;;;4.51;;
77166;SDS011;66141;7.324;79.980;2023-01-15T00:32:12;8.94;;;4.86;;
77166;SDS011;66141;7.324;79.980;2023-01-15T00:32:18;8.70;;;4.80;;
77166;SDS011;66141;7.324;79.980;2023-01-15T00:32:24;8.43;;;4.70;;
77166;SDS011;66141;7.324;79.980;2023-01-15T00:32:32;7.93;;;4.70;;
77166;SDS011;66141;7.324;79.980;2023-01-15T00:32:38;7.85;;;4.65;;
77166;SDS011;66141;7.324;79.980;2023-01-15T00:32:44;7.03;;;4.50;;
77166;SDS011;66141;7.324;79.980;2023-01-15T00:32:49;6.75;;;4.47;;
77166;SDS011;66141;7.324;79.980;2023-01-15T00:32:56;6.85;;;4.55;;
77166;SDS011;66141;7.324;79.980;2023-01-15T00:33:02;7.40;;;4.67;;
77166;SDS011;66141;7.324;79.980;2023-01-15T00:33:08;8.55;;;4.60;;
77166;SDS011;66141;7.324;79.980;2023-01-15T00:33:14;9.15;;;4.60;;
77166;SDS011;66141;7.324;79.980;2023-01-15T00:33:20;10.05;;;4.72;;
77166;SDS011;66141;7.324;79.980;2023-01-15T00:33:26;9.40;;;4.47;;
77166;SDS011;66141;7.324;79.980;2023-01-15T00:33:32;8.82;;;4.28;;
77166;SDS011;66141;7.324;79.980;2023-01-15T00:33:37;7.90;;;4.28;;
77166;SDS011;66141;7.324;79.980;2023-01-15T00:33:43;7.82;;;4.40;;
77166;SDS011;66141;7.324;79.980;2023-01-15T00:33:49;7.17;;;4.30;;
77166;SDS011;66141;7.324;79.980;2023-01-15T00:33:55;7.32;;;4.40;;
77166;SDS011;66141;7.324;79.980;2023-01-15T00:34:01;7.65;;;4.55;;
77166;SDS011;66141;7.324;79.980;2023-01-15T00:34:07;7.93;;;4.47;;
77166;SDS011;66141;7.324;79.980;2023-01-15T00:34:13;7.35;;;4.35;;
77166;SDS011;66141;7.324;79.980;2023-01-15T00:34:19;7.35;;;4.20;;
77166;SDS011;66141;7.324;79.980;2023-01-15T00:34:25;7.65;;;4.13;;
77166;SDS011;66141;7.324;79.980;2023-01-15T00:34:31;7.93;;;4.00;;
77166;SDS011;66141;7.324;79.980;2023-01-15T00:34:37;8.43;;;4.00;;
77166;SDS011;66141;7.324;79.980;2023-01-15T00:34:42;9.25;;;3.80;;
77166;SDS011;66141;7.324;79.980;2023-01-15T00:34:48;9.38;;;3.75;;
77166;SDS011;66141;7.324;79.980;2023-01-15T00:34:54;8.97;;;3.77;;
77166;SDS011;66141;7.324;79.980;2023-01-15T00:35:00;8.83;;;3.87;;
77166;SDS011;66141;7.324;79.980;2023-01-15T00:35:06;8.38;;;3.88;;
77166;SDS011;66141;7.324;79.980;2023-01-15T00:35:13;6.93;;;4.07;;
77166;SDS011;66141;7.324;79.980;2023-01-15T00:35:20;6.50;;;3.97;;
77166;SDS011;66141;7.324;79.980;2023-01-15T00:35:26;6.83;;;4.00;;
77166;SDS011;66141;7.324;79.980;2023-01-15T00:35:32;6.88;;;4.05;;
77166;SDS011;66141;7.324;79.980;2023-01-15T00:35:38;7.20;;;4.03;;
77166;SDS011;66141;7.324;79.980;2023-01-15T00:35:44;8.25;;;3.75;;
77166;SDS011;66141;7.324;79.980;2023-01-15T00:35:49;8.20;;;3.90;;
77166;SDS011;66141;7.324;79.980;2023-01-15T00:35:55;7.53;;;3.55;;
77166;SDS011;66141;7.324;79.980;2023-01-15T00:36:01;7.65;;;3.50;;
77166;SDS011;66141;7.324;79.980;2023-01-15T00:36:07;8.50;;;3.67;;
77166;SDS011;66141;7.324;79.980;2023-01-15T00:36:13;7.55;;;3.97;;
77166;SDS011;66141;7.324;79.980;2023-01-15T00:36:18;7.63;;;4.03;;
77166;SDS011;66141;7.324;79.980;2023-01-15T00:36:24;7.30;;;4.03;;
77166;SDS011;66141;7.324;79.980;2023-01-15T00:36:30;7.45;;;4.10;;
77166;SDS011;66141;7.324;79.980;2023-01-15T00:36:37;5.80;;;3.70;;
77166;SDS011;66141;7.324;79.980;2023-01-15T00:36:44;5.74;;;3.66;;
77166;SDS011;66141;7.324;79.980;2023-01-15T00:36:50;6.00;;;3.70;;
77166;SDS011;66141;7.324;79.980;2023-01-15T00:36:56;6.43;;;3.87;;
77166;SDS011;66141;7.324;79.980;2023-01-15T00:37:02;6.60;;;4.18;;
77166;SDS011;66141;7.324;79.980;2023-01-15T00:37:07;6.80;;;4.47;;
77166;SDS011;66141;7.324;79.980;2023-01-15T00:37:13;7.03;;;4.55;;
77166;SDS011;66141;7.324;79.980;2023-01-15T00:37:19;6.65;;;4.32;;
77166;SDS011;66141;7.324;79.980;2023-01-15T00:37:25;6.85;;;4.38;;
77166;SDS011;66141;7.324;79.980;2023-01-15T00:37:31;7.17;;;4.13;;
77166;SDS011;66141;7.324;79.980;2023-01-15T00:37:37;7.67;;;4.10;;
77166;SDS011;66141;7.324;79.980;2023-01-15T00:37:42;7.85;;;4.10;;
77166;SDS011;66141;7.324;79.980;2023-01-15T00:37:49;8.35;;;4.10;;
77166;SDS011;66141;7.324;79.980;2023-01-15T00:37:54;8.00;;;4.07;;
77166;SDS011;66141;7.324;79.980;2023-01-15T00:38:00;7.35;;;3.95;;
77166;SDS011;66141;7.324;79.980;2023-01-15T00:38:06;7.05;;;3.75;;
77166;SDS011;66141;7.324;79.980;2023-01-15T00:38:12;6.70;;;3.67;;
77166;SDS011;66141;7.324;79.980;2023-01-15T00:38:18;7.10;;;3.75;;
77166;SDS011;66141;7.324;79.980;2023-01-15T00:38:23;7.22;;;3.70;;
77166;SDS011;66141;7.324;79.980;2023-01-15T00:38:29;7.47;;;3.85;;
77166;SDS011;66141;7.324;79.980;2023-01-15T00:38:35;7.83;;;4.07;;
77166;SDS011;66141;7.324;79.980;2023-01-15T00:38:41;8.02;;;4.18;;
77166;SDS011;66141;7.324;79.980;2023-01-15T00:38:47;8.18;;;4.18;;
77166;SDS011;66141;7.324;79.980;2023-01-15T00:38:52;8.20;;;4.03;;
77166;SDS011;66141;7.324;79.980;2023-01-15T00:38:59;9.35;;;4.22;;
77166;SDS011;66141;7.324;79.980;2023-01-15T00:39:05;10.45;;;3.95;;
77166;SDS011;66141;7.324;79.980;2023-01-15T00:39:11;10.13;;;3.85;;
77166;SDS011;66141;7.324;79.980;2023-01-15T00:39:17;9.63;;;3.75;;
77166;SDS011;66141;7.324;79.980;2023-01-15T00:39:23;9.85;;;3.85;;
77166;SDS011;66141;7.324;79.980;2023-01-15T00:39:29;9.02;;;4.04;;
77166;SDS011;66141;7.324;79.980;2023-01-15T00:39:35;7.53;;;4.20;;
77166;SDS011;66141;7.324;79.980;2023-01-15T00:39:41;7.25;;;4.30;;
77166;SDS011;66141;7.324;79.980;2023-01-15T00:39:47;6.80;;;4.47;;
77166;SDS011;66141;7.324;79.980;2023-01-15T00:39:53;6.18;;;4.50;;
77166;SDS011;66141;7.324;79.980;2023-01-15T00:39:59;6.47;;;4.25;;
77166;SDS011;66141;7.324;79.980;2023-01-15T00:40:04;7.23;;;4.33;;
77166;SDS011;66141;7.324;79.980;2023-01-15T00:40:11;8.77;;;4.47;;
77166;SDS011;66141;7.324;79.980;2023-01-15T00:40:17;9.64;;;4.40;;
77166;SDS011;66141;7.324;79.980;2023-01-15T00:40:23;9.84;;;4.48;;
77166;SDS011;66141;7.324;79.980;2023-01-15T00:40:29;8.70;;;4.30;;
77166;SDS011;66141;7.324;79.980;2023-01-15T00:40:35;7.78;;;4.38;;
77166;SDS011;66141;7.324;79.980;2023-01-15T00:40:41;7.68;;;4.47;;
77166;SDS011;66141;7.324;79.980;2023-01-15T00:40:47;7.60;;;4.57;;
77166;SDS011;66141;7.324;79.980;2023-01-15T00:40:57;7.17;;;4.30;;